Time;durP1;ratioP1;P1;durP2;ratioP2;P2;SDS_P1;SDS_P2;PMS_P1;PMS_P2;Temp;Humidity;BMP_temperature;BMP_pressure;BME280_temperature;BME280_humidity;BME280_pressure;Samples;Min_cycle;Max_cycle;Signal;HPM_P1;HPM_P2
2023/12/02 00:02:02;;;;;;;20.23;19.40;;;3.00;99.90;;;;;;5071015;28;20701;-68
2023/12/02 00:04:29;;;;;;;19.83;19.03;;;2.90;99.90;;;;;;5054227;28;20224;-66
2023/12/02 00:06:56;;;;;;;20.40;19.50;;;2.80;99.90;;;;;;5054455;28;20831;-67
2023/12/02 00:09:23;;;;;;;20.08;19.20;;;2.70;99.90;;;;;;5052806;28;20685;-67
2023/12/02 00:11:51;;;;;;;20.90;19.90;;;2.60;99.90;;;;;;5056416;28;20210;-67
2023/12/02 00:14:18;;;;;;;19.33;18.53;;;2.60;99.90;;;;;;5062322;28;20210;-67
2023/12/02 00:16:44;;;;;;;19.73;18.83;;;2.60;99.90;;;;;;5068478;28;20563;-68
2023/12/02 00:19:11;;;;;;;19.77;18.97;;;2.60;99.90;;;;;;5071617;28;20217;-67
2023/12/02 00:21:38;;;;;;;19.43;18.63;;;2.60;99.90;;;;;;5071236;28;20207;-68
2023/12/02 00:24:05;;;;;;;19.73;18.83;;;2.50;99.90;;;;;;5070932;28;20243;-68
2023/12/02 00:26:32;;;;;;;19.93;19.13;;;2.60;99.90;;;;;;5068712;28;20227;-67
2023/12/02 00:29:00;;;;;;;17.63;16.93;;;2.50;99.90;;;;;;5070047;28;20310;-67
2023/12/02 00:31:27;;;;;;;19.30;18.50;;;2.60;99.90;;;;;;5071296;28;20235;-69
2023/12/02 00:33:53;;;;;;;19.90;19.03;;;2.60;99.90;;;;;;5071137;28;20241;-68
2023/12/02 00:36:20;;;;;;;19.77;18.97;;;2.60;99.90;;;;;;5070915;28;20702;-67
2023/12/02 00:38:47;;;;;;;19.23;18.43;;;2.60;99.90;;;;;;5071373;28;20219;-68
2023/12/02 00:41:13;;;;;;;22.07;21.17;;;2.50;99.90;;;;;;5075221;28;20220;-69
2023/12/02 00:43:40;;;;;;;20.20;19.30;;;2.40;99.90;;;;;;5070605;28;20566;-68
2023/12/02 00:46:08;;;;;;;17.60;16.90;;;2.40;99.90;;;;;;5062921;28;20239;-66
2023/12/02 00:48:35;;;;;;;17.97;17.17;;;2.30;99.90;;;;;;5074720;28;20237;-67
2023/12/02 00:51:02;;;;;;;17.17;16.47;;;2.30;99.90;;;;;;5076149;28;20214;-67
2023/12/02 00:53:29;;;;;;;17.30;16.60;;;2.30;99.90;;;;;;5078151;28;20218;-68
2023/12/02 00:55:56;;;;;;;17.73;16.93;;;2.30;99.90;;;;;;5075322;28;20227;-68
2023/12/02 00:58:23;;;;;;;16.80;16.10;;;2.30;99.90;;;;;;5080038;28;20701;-68
2023/12/02 01:00:49;;;;;;;17.30;16.50;;;2.20;99.90;;;;;;5078404;28;20215;-67
2023/12/02 01:03:17;;;;;;;16.60;15.90;;;2.30;99.90;;;;;;5078306;28;20207;-68
2023/12/02 01:05:44;;;;;;;16.83;16.13;;;2.30;99.90;;;;;;5079779;28;20258;-66
2023/12/02 01:08:11;;;;;;;17.40;16.60;;;2.30;99.90;;;;;;5075115;28;20568;-68
2023/12/02 01:10:38;;;;;;;16.53;15.83;;;2.30;99.90;;;;;;5075375;28;20211;-69
2023/12/02 01:13:04;;;;;;;17.07;16.37;;;2.20;99.90;;;;;;5078240;28;20247;-67
2023/12/02 01:15:31;;;;;;;17.10;16.40;;;2.20;99.90;;;;;;5075249;28;20219;-67
2023/12/02 01:17:58;;;;;;;18.73;17.83;;;2.20;99.90;;;;;;5073672;28;20291;-67
2023/12/02 01:20:26;;;;;;;17.30;16.60;;;2.30;99.90;;;;;;5072092;28;20208;-67
2023/12/02 01:22:52;;;;;;;17.97;17.17;;;2.30;99.90;;;;;;5082489;28;20565;-67
2023/12/02 01:25:19;;;;;;;17.43;16.73;;;2.40;99.90;;;;;;5080971;28;20231;-66
2023/12/02 01:27:46;;;;;;;18.10;17.30;;;2.30;99.90;;;;;;5084441;28;20279;-67
2023/12/02 01:30:13;;;;;;;17.20;16.50;;;2.30;99.90;;;;;;5082891;28;20226;-68
2023/12/02 01:32:40;;;;;;;17.77;16.97;;;2.20;99.90;;;;;;5079637;28;20211;-65
2023/12/02 01:35:07;;;;;;;16.40;15.70;;;2.20;99.90;;;;;;5080141;28;20238;-65
2023/12/02 01:37:35;;;;;;;16.67;15.97;;;2.10;99.90;;;;;;5078171;28;20265;-68
2023/12/02 01:40:02;;;;;;;17.83;17.03;;;2.10;99.90;;;;;;5076122;28;20211;-67
2023/12/02 01:42:29;;;;;;;17.57;16.77;;;2.00;99.90;;;;;;5071545;28;20204;-68
2023/12/02 01:44:56;;;;;;;16.13;15.43;;;1.90;99.90;;;;;;5077389;28;20223;-66
2023/12/02 01:47:23;;;;;;;17.20;16.50;;;1.90;99.90;;;;;;5075146;28;20239;-65
2023/12/02 01:49:51;;;;;;;16.47;15.77;;;1.90;99.90;;;;;;5082812;28;20218;-67
2023/12/02 01:52:18;;;;;;;17.10;16.30;;;1.90;99.90;;;;;;5073229;28;20207;-65
2023/12/02 01:54:46;;;;;;;16.88;16.17;;;1.80;99.90;;;;;;5077116;28;20314;-67
2023/12/02 01:57:13;;;;;;;16.57;15.87;;;1.70;99.90;;;;;;5073397;28;20230;-67
2023/12/02 01:59:45;;;;;;;16.10;15.40;;;1.70;99.90;;;;;;5074024;28;20208;-67
2023/12/02 02:02:12;;;;;;;17.67;16.93;;;1.70;99.90;;;;;;5076038;28;20220;-67
2023/12/02 02:04:39;;;;;;;16.43;15.73;;;1.70;99.90;;;;;;5072392;28;20231;-68
2023/12/02 02:07:06;;;;;;;16.10;15.40;;;1.70;99.90;;;;;;5077564;28;20690;-66
2023/12/02 02:09:34;;;;;;;16.40;15.60;;;1.70;99.90;;;;;;5077082;28;20218;-67
2023/12/02 02:12:03;;;;;;;16.77;15.97;;;1.70;99.90;;;;;;5073442;28;20551;-68
2023/12/02 02:14:29;;;;;;;16.37;15.57;;;1.70;99.90;;;;;;5075276;28;20207;-66
2023/12/02 02:16:56;;;;;;;16.67;15.87;;;1.70;99.90;;;;;;5073376;28;20203;-68
2023/12/02 02:19:23;;;;;;;15.37;14.73;;;1.80;99.90;;;;;;5072532;28;20597;-69
2023/12/02 02:21:53;;;;;;;16.87;16.07;;;1.90;99.90;;;;;;5074408;28;20207;-67
2023/12/02 02:24:20;;;;;;;16.30;15.60;;;1.90;99.90;;;;;;5070039;28;20666;-66
2023/12/02 02:26:47;;;;;;;16.43;15.73;;;1.90;99.90;;;;;;5069281;28;20246;-68
2023/12/02 02:29:13;;;;;;;15.37;14.67;;;1.80;99.90;;;;;;5074265;28;20238;-68
2023/12/02 02:31:40;;;;;;;15.80;15.10;;;1.70;99.90;;;;;;5074508;28;20203;-67
2023/12/02 02:34:07;;;;;;;15.53;14.83;;;1.70;99.90;;;;;;5074651;28;20207;-67
2023/12/02 02:36:34;;;;;;;15.93;15.23;;;1.70;99.90;;;;;;5068284;28;20229;-67
2023/12/02 02:39:02;;;;;;;15.27;14.63;;;1.80;99.90;;;;;;5075121;28;20211;-67
2023/12/02 02:41:29;;;;;;;15.83;15.13;;;1.70;99.90;;;;;;5086628;28;20215;-67
2023/12/02 02:43:56;;;;;;;15.27;14.60;;;1.60;99.90;;;;;;5086077;28;20230;-69
2023/12/02 02:46:22;;;;;;;15.47;14.77;;;1.70;99.90;;;;;;5078225;28;20235;-67
2023/12/02 02:48:49;;;;;;;18.63;17.67;;;1.70;99.90;;;;;;5074037;28;20769;-67
2023/12/02 02:51:16;;;;;;;15.13;14.53;;;1.70;99.90;;;;;;5053340;28;20204;-67
2023/12/02 02:53:43;;;;;;;15.17;14.50;;;1.70;99.90;;;;;;5053722;28;20223;-66
2023/12/02 02:56:11;;;;;;;15.20;14.60;;;1.60;99.90;;;;;;5053792;28;20772;-67
2023/12/02 02:58:38;;;;;;;15.40;14.77;;;1.70;99.90;;;;;;5053332;28;20208;-66
2023/12/02 03:01:05;;;;;;;15.13;14.43;;;1.70;99.90;;;;;;5053950;28;20216;-66
2023/12/02 03:03:32;;;;;;;15.27;14.57;;;1.70;99.90;;;;;;5052332;28;20411;-67
2023/12/02 03:06:00;;;;;;;15.77;15.07;;;1.60;99.90;;;;;;5053352;28;20240;-68
2023/12/02 03:08:26;;;;;;;15.73;15.03;;;1.60;99.90;;;;;;5052627;28;20212;-69
2023/12/02 03:10:54;;;;;;;16.80;16.05;;;1.60;99.90;;;;;;5052661;28;20222;-67
2023/12/02 03:13:22;;;;;;;15.40;14.80;;;1.60;99.90;;;;;;5048385;28;20664;-67
2023/12/02 03:15:49;;;;;;;16.53;15.73;;;1.60;99.90;;;;;;5052652;28;20247;-66
2023/12/02 03:18:15;;;;;;;16.30;15.60;;;1.60;99.90;;;;;;5052527;28;20214;-67
2023/12/02 03:20:42;;;;;;;15.10;14.43;;;1.60;99.90;;;;;;5052467;28;20216;-69
2023/12/02 03:23:09;;;;;;;15.37;14.77;;;1.50;99.90;;;;;;5052852;28;20582;-66
2023/12/02 03:25:36;;;;;;;15.85;15.18;;;1.50;99.90;;;;;;5052480;28;20235;-68
2023/12/02 03:28:02;;;;;;;15.97;15.27;;;1.40;99.90;;;;;;5049403;28;20216;-67
2023/12/02 03:30:30;;;;;;;15.13;14.50;;;1.40;99.90;;;;;;5050759;28;20702;-66
2023/12/02 03:32:57;;;;;;;16.13;15.43;;;1.40;99.90;;;;;;5048169;28;20215;-67
2023/12/02 03:35:24;;;;;;;16.30;15.60;;;1.40;99.90;;;;;;5052396;28;20242;-66
2023/12/02 03:37:50;;;;;;;16.38;15.60;;;1.40;99.90;;;;;;5052053;28;20216;-68
2023/12/02 03:40:17;;;;;;;16.10;15.40;;;1.30;99.90;;;;;;5052077;28;20671;-68
2023/12/02 03:42:44;;;;;;;15.03;14.40;;;1.30;99.90;;;;;;5052142;28;20671;-66
2023/12/02 03:45:11;;;;;;;15.13;14.50;;;1.30;99.90;;;;;;5052201;28;20232;-68
2023/12/02 03:47:39;;;;;;;15.45;14.75;;;1.40;99.90;;;;;;5051844;28;20212;-66
2023/12/02 03:50:09;;;;;;;15.60;14.90;;;1.30;99.90;;;;;;5043757;28;20224;-66
2023/12/02 03:52:35;;;;;;;14.90;14.20;;;1.30;99.90;;;;;;5051326;28;20212;-66
2023/12/02 03:55:02;;;;;;;16.07;15.37;;;1.30;99.90;;;;;;5049029;28;20581;-68
2023/12/02 03:57:29;;;;;;;15.60;14.90;;;1.40;99.90;;;;;;5049937;28;20211;-67
2023/12/02 03:59:56;;;;;;;16.07;15.37;;;1.20;99.90;;;;;;5051562;28;20212;-68
2023/12/02 04:02:22;;;;;;;16.03;15.33;;;1.20;99.90;;;;;;5051979;28;20590;-67
2023/12/02 04:04:50;;;;;;;15.57;14.97;;;1.20;99.90;;;;;;5051292;28;20228;-68
2023/12/02 04:07:17;;;;;;;16.23;15.53;;;1.10;99.90;;;;;;5051369;28;20231;-67
2023/12/02 04:09:45;;;;;;;16.90;16.17;;;1.10;99.90;;;;;;5051247;28;20208;-66
2023/12/02 04:12:12;;;;;;;15.90;15.20;;;1.10;99.90;;;;;;5051401;28;20212;-66
2023/12/02 04:14:39;;;;;;;15.90;15.20;;;1.20;99.90;;;;;;5046019;28;20228;-67
2023/12/02 04:17:06;;;;;;;15.33;14.63;;;1.20;99.90;;;;;;5051473;28;20227;-66
2023/12/02 04:19:32;;;;;;;15.73;15.03;;;1.20;99.90;;;;;;5051037;28;20678;-66
2023/12/02 04:22:01;;;;;;;15.53;14.87;;;1.30;99.90;;;;;;5051205;28;20214;-67
2023/12/02 04:24:28;;;;;;;15.80;15.07;;;1.30;99.90;;;;;;5051145;28;20212;-66
2023/12/02 04:26:55;;;;;;;15.68;14.98;;;1.30;99.90;;;;;;5050991;28;20270;-66
2023/12/02 04:29:22;;;;;;;15.97;15.27;;;1.20;99.90;;;;;;5051380;28;20298;-68
2023/12/02 04:31:48;;;;;;;15.70;15.00;;;1.10;99.90;;;;;;5051230;28;20208;-68
2023/12/02 04:34:15;;;;;;;15.37;14.73;;;1.10;99.90;;;;;;5051334;28;20212;-66
2023/12/02 04:36:43;;;;;;;15.83;15.13;;;1.10;99.90;;;;;;5050949;28;20204;-67
2023/12/02 04:39:11;;;;;;;15.63;14.93;;;1.10;99.90;;;;;;5050827;28;20414;-66
2023/12/02 04:41:38;;;;;;;16.53;15.83;;;1.10;99.90;;;;;;5051662;28;20214;-68
2023/12/02 04:44:06;;;;;;;15.77;15.07;;;1.10;99.90;;;;;;5052387;28;20265;-68
2023/12/02 04:46:33;;;;;;;16.40;15.67;;;1.10;99.90;;;;;;5052867;28;20234;-66
2023/12/02 04:49:00;;;;;;;15.70;15.00;;;1.10;99.90;;;;;;5052848;28;20214;-68
2023/12/02 04:51:27;;;;;;;16.47;15.77;;;1.10;99.90;;;;;;5048778;28;20222;-67
2023/12/02 04:53:53;;;;;;;16.27;15.57;;;1.10;99.90;;;;;;5069027;28;20207;-67
2023/12/02 04:56:21;;;;;;;15.70;15.00;;;1.10;99.90;;;;;;5087150;28;20238;-68
2023/12/02 04:58:48;;;;;;;15.27;14.60;;;1.10;99.90;;;;;;5087871;28;20260;-67
2023/12/02 05:01:15;;;;;;;14.30;13.70;;;1.10;99.90;;;;;;5075113;28;20626;-67
2023/12/02 05:03:42;;;;;;;15.27;14.57;;;1.10;99.90;;;;;;5071405;28;20214;-69
2023/12/02 05:06:13;;;;;;;15.07;14.37;;;1.00;99.90;;;;;;5071150;28;20682;-67
2023/12/02 05:08:40;;;;;;;14.70;14.10;;;1.00;99.90;;;;;;5071298;28;20211;-66
2023/12/02 05:11:07;;;;;;;15.10;14.40;;;1.10;99.90;;;;;;5071281;28;20203;-68
2023/12/02 05:13:37;;;;;;;15.53;14.83;;;1.10;99.90;;;;;;5071805;28;20226;-67
2023/12/02 05:16:04;;;;;;;16.47;15.77;;;1.00;99.90;;;;;;5071202;28;20235;-66
2023/12/02 05:18:31;;;;;;;16.67;15.97;;;0.90;99.90;;;;;;5071611;28;20204;-66
2023/12/02 05:20:58;;;;;;;16.47;15.77;;;0.90;99.90;;;;;;5073023;28;20586;-69
2023/12/02 05:23:24;;;;;;;16.63;15.93;;;0.90;99.90;;;;;;5068213;28;20231;-67
2023/12/02 05:25:51;;;;;;;15.57;14.87;;;0.80;99.90;;;;;;5085225;28;20223;-66
2023/12/02 05:28:18;;;;;;;15.37;14.67;;;0.90;99.90;;;;;;5077686;28;20238;-69
2023/12/02 05:30:46;;;;;;;15.47;14.87;;;0.80;99.90;;;;;;5074709;28;20262;-66
2023/12/02 05:33:13;;;;;;;15.73;15.03;;;0.90;99.90;;;;;;5068123;28;20207;-68
2023/12/02 05:35:40;;;;;;;14.93;14.30;;;0.90;99.90;;;;;;5074553;28;20223;-68
2023/12/02 05:38:06;;;;;;;14.63;14.03;;;0.70;99.90;;;;;;5074354;28;20206;-69
2023/12/02 05:40:33;;;;;;;14.03;13.43;;;0.80;99.90;;;;;;5074668;28;20317;-68
2023/12/02 05:43:00;;;;;;;14.33;13.70;;;0.90;99.90;;;;;;5074236;28;20218;-69
2023/12/02 05:45:26;;;;;;;14.50;13.80;;;1.00;99.90;;;;;;5074186;28;20245;-67
2023/12/02 05:47:54;;;;;;;14.73;14.03;;;0.90;99.90;;;;;;5074336;28;20241;-67
2023/12/02 05:50:21;;;;;;;13.23;12.63;;;0.90;99.90;;;;;;5075226;28;20230;-67
2023/12/02 05:52:48;;;;;;;13.52;12.93;;;0.90;99.90;;;;;;5073845;28;20207;-66
2023/12/02 05:55:15;;;;;;;14.73;14.13;;;0.80;99.90;;;;;;5073787;28;20253;-68
2023/12/02 05:57:43;;;;;;;14.23;13.63;;;0.80;99.90;;;;;;5074033;28;20215;-66
2023/12/02 06:00:11;;;;;;;15.10;14.40;;;0.80;99.90;;;;;;5068931;28;20277;-68
2023/12/02 06:02:38;;;;;;;13.70;13.10;;;0.70;99.90;;;;;;5068748;28;20208;-67
2023/12/02 06:05:07;;;;;;;14.37;13.77;;;0.80;99.90;;;;;;5071648;28;20228;-68
2023/12/02 06:07:34;;;;;;;15.00;14.40;;;0.70;99.90;;;;;;5075698;28;20670;-67
2023/12/02 06:10:00;;;;;;;15.60;14.90;;;0.60;99.90;;;;;;5068692;28;20207;-69
2023/12/02 06:12:27;;;;;;;16.43;15.73;;;0.70;99.90;;;;;;5067568;28;20215;-69
2023/12/02 06:14:54;;;;;;;16.03;15.33;;;0.70;99.90;;;;;;5081380;28;20215;-64
2023/12/02 06:17:20;;;;;;;15.50;14.87;;;0.60;99.90;;;;;;5086593;28;20205;-69
2023/12/02 06:19:47;;;;;;;14.33;13.73;;;0.60;99.90;;;;;;5090269;28;20196;-66
2023/12/02 06:22:15;;;;;;;15.83;15.13;;;0.50;99.90;;;;;;5080057;28;20207;-67
2023/12/02 06:24:42;;;;;;;15.00;14.30;;;0.50;99.90;;;;;;5082011;28;20231;-65
2023/12/02 06:27:09;;;;;;;15.33;14.67;;;0.50;99.90;;;;;;5083178;28;20708;-67
2023/12/02 06:29:35;;;;;;;16.10;15.40;;;0.50;99.90;;;;;;5074743;28;20211;-67
2023/12/02 06:32:02;;;;;;;15.23;14.60;;;0.40;99.90;;;;;;5073892;28;20693;-67
2023/12/02 06:34:30;;;;;;;15.10;14.40;;;0.40;99.90;;;;;;5081061;28;20207;-67
2023/12/02 06:36:56;;;;;;;16.13;15.43;;;0.40;99.90;;;;;;5070922;28;20207;-66
2023/12/02 06:39:24;;;;;;;16.17;15.47;;;0.40;99.90;;;;;;5076014;28;20211;-66
2023/12/02 06:41:51;;;;;;;14.90;14.20;;;0.30;99.90;;;;;;5075110;28;20211;-70
2023/12/02 06:44:18;;;;;;;14.93;14.27;;;0.30;99.90;;;;;;5072666;28;20215;-66
2023/12/02 06:46:45;;;;;;;15.17;14.57;;;0.30;99.90;;;;;;5069623;28;20255;-67
2023/12/02 06:49:11;;;;;;;15.07;14.47;;;0.40;99.90;;;;;;5073464;28;20229;-69
2023/12/02 06:51:38;;;;;;;15.10;14.50;;;0.40;99.90;;;;;;5074106;28;20762;-67
2023/12/02 06:54:04;;;;;;;15.10;14.40;;;0.40;99.90;;;;;;5070540;28;20215;-69
2023/12/02 06:56:32;;;;;;;14.30;13.70;;;0.50;99.90;;;;;;5075985;28;20231;-67
2023/12/02 06:58:59;;;;;;;16.33;15.63;;;0.40;99.90;;;;;;5073977;28;20239;-66
2023/12/02 07:01:26;;;;;;;13.97;13.40;;;0.50;99.90;;;;;;5075573;28;20215;-67
2023/12/02 07:03:54;;;;;;;13.80;13.30;;;0.40;99.90;;;;;;5071000;28;20215;-68
2023/12/02 07:06:21;;;;;;;14.47;13.83;;;0.40;99.90;;;;;;5071655;28;20702;-66
2023/12/02 07:08:48;;;;;;;14.83;14.17;;;0.30;99.90;;;;;;5072152;28;20211;-67
2023/12/02 07:11:15;;;;;;;14.60;14.00;;;0.40;99.90;;;;;;5074130;28;20204;-65
2023/12/02 07:13:44;;;;;;;15.67;14.97;;;0.50;99.90;;;;;;5083022;28;20207;-65
2023/12/02 07:16:11;;;;;;;14.67;14.07;;;0.50;99.90;;;;;;5081567;28;20229;-67
2023/12/02 07:18:38;;;;;;;13.10;12.50;;;0.50;99.90;;;;;;5080241;28;20208;-68
2023/12/02 07:21:05;;;;;;;14.33;13.73;;;0.50;99.90;;;;;;5081626;28;20241;-67
2023/12/02 07:23:31;;;;;;;15.13;14.43;;;0.40;99.90;;;;;;5083976;28;20208;-67
2023/12/02 07:25:58;;;;;;;14.67;13.97;;;0.40;99.90;;;;;;5084385;28;20689;-68
2023/12/02 07:28:26;;;;;;;15.53;14.83;;;0.40;99.90;;;;;;5072555;28;20318;-67
2023/12/02 07:30:55;;;;;;;14.57;13.93;;;0.30;99.90;;;;;;5072288;28;20207;-67
2023/12/02 07:33:22;;;;;;;14.23;13.63;;;0.30;99.90;;;;;;5072213;28;20731;-67
2023/12/02 07:35:49;;;;;;;14.03;13.43;;;0.30;99.90;;;;;;5071831;28;20322;-69
2023/12/02 07:38:16;;;;;;;14.70;14.10;;;0.30;99.90;;;;;;5071422;28;20210;-68
2023/12/02 07:40:43;;;;;;;14.97;14.20;;;0.30;99.90;;;;;;5064499;28;20219;-68
2023/12/02 07:43:09;;;;;;;14.50;13.90;;;0.30;99.90;;;;;;5071832;28;20211;-67
2023/12/02 07:45:37;;;;;;;14.52;13.93;;;0.30;99.90;;;;;;5068075;28;20751;-68
2023/12/02 07:48:06;;;;;;;16.10;15.30;;;0.20;99.90;;;;;;5069583;28;20232;-69
2023/12/02 07:50:32;;;;;;;14.20;13.60;;;0.30;99.90;;;;;;5071569;28;20690;-66
2023/12/02 07:52:59;;;;;;;15.20;14.40;;;0.30;99.90;;;;;;5072305;28;20591;-68
2023/12/02 07:55:26;;;;;;;15.13;14.43;;;0.30;99.90;;;;;;5073352;28;20227;-66
2023/12/02 07:57:53;;;;;;;16.07;15.27;;;0.30;99.90;;;;;;5070248;28;20212;-68
2023/12/02 08:00:20;;;;;;;14.70;14.10;;;0.30;99.90;;;;;;5067270;28;20234;-69
2023/12/02 08:02:47;;;;;;;15.30;14.60;;;0.20;99.90;;;;;;5074610;28;20207;-67
2023/12/02 08:05:15;;;;;;;15.10;14.40;;;0.30;99.90;;;;;;5077599;28;20713;-69
2023/12/02 08:07:42;;;;;;;14.43;13.83;;;0.30;99.90;;;;;;5069510;28;20226;-69
2023/12/02 08:10:10;;;;;;;14.47;13.77;;;0.30;99.90;;;;;;5072177;28;20646;-68
2023/12/02 08:12:37;;;;;;;13.80;13.20;;;0.30;99.90;;;;;;5073740;28;20242;-68
2023/12/02 08:15:05;;;;;;;14.33;13.73;;;0.40;99.90;;;;;;5067976;28;20284;-69
2023/12/02 08:17:32;;;;;;;14.37;13.67;;;0.40;99.90;;;;;;5071224;28;20207;-67
2023/12/02 08:19:58;;;;;;;14.93;14.23;;;0.50;99.90;;;;;;5071340;28;20326;-67
2023/12/02 08:22:27;;;;;;;14.10;13.50;;;0.40;99.90;;;;;;5071449;28;20207;-67
2023/12/02 08:24:54;;;;;;;14.50;13.87;;;0.40;99.90;;;;;;5071821;28;20242;-70
2023/12/02 08:27:21;;;;;;;14.37;13.67;;;0.50;99.90;;;;;;5071447;28;20234;-69
2023/12/02 08:29:47;;;;;;;13.87;13.27;;;0.60;99.90;;;;;;5073367;28;20215;-70
2023/12/02 08:32:14;;;;;;;13.20;12.70;;;0.50;99.90;;;;;;5079958;28;20226;-68
2023/12/02 08:34:41;;;;;;;13.83;13.23;;;0.50;99.90;;;;;;5078169;28;20234;-67
2023/12/02 08:37:08;;;;;;;14.33;13.73;;;0.40;99.90;;;;;;5073212;28;20264;-70
2023/12/02 08:39:37;;;;;;;14.30;13.67;;;0.40;99.90;;;;;;5071511;28;20241;-66
2023/12/02 08:42:04;;;;;;;14.00;13.30;;;0.40;99.90;;;;;;5072765;28;20600;-69
2023/12/02 08:44:30;;;;;;;13.67;13.07;;;0.40;99.90;;;;;;5072425;28;20210;-65
2023/12/02 08:47:00;;;;;;;14.00;13.40;;;0.30;99.90;;;;;;5070901;28;20214;-67
2023/12/02 08:49:27;;;;;;;13.70;13.10;;;0.30;99.90;;;;;;5070829;28;20681;-67
2023/12/02 08:51:54;;;;;;;13.70;13.10;;;0.30;99.90;;;;;;5070944;28;20211;-68
2023/12/02 08:54:20;;;;;;;14.03;13.33;;;0.40;99.90;;;;;;5070804;28;20735;-69
2023/12/02 08:56:48;;;;;;;13.70;13.10;;;0.40;99.90;;;;;;5071022;28;20270;-68
2023/12/02 08:59:16;;;;;;;13.90;13.30;;;0.30;99.90;;;;;;5070345;28;20218;-67
2023/12/02 09:01:43;;;;;;;13.65;13.05;;;0.20;99.90;;;;;;5074218;28;20674;-66
2023/12/02 09:04:10;;;;;;;13.98;13.38;;;0.30;99.90;;;;;;5071240;28;20285;-69
2023/12/02 09:06:37;;;;;;;14.30;13.70;;;0.30;99.90;;;;;;5075005;28;20235;-69
2023/12/02 09:09:03;;;;;;;14.77;14.13;;;0.30;99.90;;;;;;5071341;28;20242;-67
2023/12/02 09:11:30;;;;;;;13.77;13.10;;;0.30;99.90;;;;;;5073193;28;20670;-69
2023/12/02 09:13:58;;;;;;;13.47;12.77;;;0.20;99.90;;;;;;5074708;28;20832;-69
2023/12/02 09:16:27;;;;;;;13.50;12.90;;;0.20;99.90;;;;;;5075933;28;20246;-68
2023/12/02 09:18:54;;;;;;;13.63;13.03;;;0.30;99.90;;;;;;5076275;28;20214;-68
2023/12/02 09:21:41;;;;;;;13.90;13.30;;;0.30;99.90;;;;;;5076589;28;20208;-70
2023/12/02 09:24:32;;;;;;;13.97;13.37;;;0.20;99.90;;;;;;5067633;28;20207;-69
2023/12/02 09:26:59;;;;;;;14.43;13.73;;;0.30;99.90;;;;;;5071011;28;20298;-67
2023/12/02 09:29:31;;;;;;;14.60;13.90;;;0.20;99.90;;;;;;5069868;28;20219;-67
2023/12/02 09:31:58;;;;;;;14.63;14.03;;;0.20;99.90;;;;;;5074609;28;20283;-65
2023/12/02 09:34:55;;;;;;;16.57;15.77;;;0.20;99.90;;;;;;5073378;28;20438;-68
2023/12/02 09:37:49;;;;;;;14.33;13.73;;;0.20;99.90;;;;;;5069096;28;20763;-67
2023/12/02 09:40:43;;;;;;;13.40;12.80;;;0.10;99.90;;;;;;5074324;28;20214;-66
2023/12/02 09:43:22;;;;;;;12.20;11.70;;;0.00;99.90;;;;;;5074973;28;20211;-66
2023/12/02 09:46:02;;;;;;;12.87;12.37;;;0.10;99.90;;;;;;5073428;28;20312;-66
2023/12/02 09:48:34;;;;;;;13.17;12.57;;;0.00;99.90;;;;;;5074325;28;20226;-67
2023/12/02 09:51:08;;;;;;;13.40;12.80;;;0.10;99.90;;;;;;5082809;28;20670;-68
2023/12/02 09:53:46;;;;;;;13.23;12.63;;;0.10;99.90;;;;;;5081685;28;20214;-70
2023/12/02 09:56:18;;;;;;;13.50;12.90;;;0.10;99.90;;;;;;5076478;28;20231;-69
2023/12/02 09:58:46;;;;;;;13.33;12.77;;;0.10;99.90;;;;;;5087026;28;20207;-68
2023/12/02 10:01:21;;;;;;;13.20;12.60;;;0.10;99.90;;;;;;5082977;28;20242;-67
2023/12/02 10:04:06;;;;;;;13.47;12.87;;;0.10;99.90;;;;;;5068528;28;20206;-65
2023/12/02 10:06:47;;;;;;;13.77;13.17;;;0.10;99.90;;;;;;5087305;28;20230;-67
2023/12/02 10:09:30;;;;;;;12.60;12.00;;;0.00;99.90;;;;;;5073239;28;20227;-67
2023/12/02 10:12:05;;;;;;;13.17;12.57;;;0.10;99.90;;;;;;5086692;28;20207;-68
2023/12/02 10:14:34;;;;;;;13.80;13.20;;;0.10;99.90;;;;;;5088526;28;20499;-67
2023/12/02 10:17:04;;;;;;;13.83;13.23;;;0.10;99.90;;;;;;5083558;28;20639;-68
2023/12/02 10:19:37;;;;;;;12.33;11.80;;;0.20;99.90;;;;;;5085210;28;20274;-66
2023/12/02 10:22:06;;;;;;;12.97;12.40;;;0.20;99.90;;;;;;5081586;28;20211;-66
2023/12/02 10:24:40;;;;;;;15.13;14.23;;;0.20;99.90;;;;;;5076827;28;20203;-66
2023/12/02 10:27:10;;;;;;;13.27;12.68;;;0.10;99.90;;;;;;5075861;28;20243;-66
2023/12/02 10:29:43;;;;;;;12.97;12.37;;;0.10;99.90;;;;;;5073277;28;20271;-66
2023/12/02 10:32:19;;;;;;;12.50;11.90;;;0.20;99.90;;;;;;5068398;28;20219;-66
2023/12/02 10:34:58;;;;;;;13.87;13.20;;;0.20;99.90;;;;;;5067668;28;20230;-67
2023/12/02 10:37:36;;;;;;;12.90;12.30;;;0.10;99.90;;;;;;5067381;28;20211;-67
2023/12/02 10:40:08;;;;;;;12.70;12.10;;;0.10;99.90;;;;;;5055466;28;20218;-68
2023/12/02 10:42:52;;;;;;;13.30;12.70;;;0.00;99.90;;;;;;5073913;28;20306;-68
2023/12/02 10:45:22;;;;;;;12.10;11.60;;;0.10;99.90;;;;;;5077625;28;20242;-67
2023/12/02 10:47:52;;;;;;;12.30;11.80;;;0.10;99.90;;;;;;5080591;28;20231;-67
2023/12/02 10:50:20;;;;;;;12.57;12.03;;;0.20;99.90;;;;;;5071795;28;20237;-68
2023/12/02 10:52:57;;;;;;;12.97;12.37;;;0.10;99.90;;;;;;5074886;28;20233;-68
2023/12/02 10:55:26;;;;;;;13.30;12.70;;;0.10;99.90;;;;;;5074616;28;20234;-67
2023/12/02 10:57:53;;;;;;;13.03;12.43;;;0.10;99.90;;;;;;5065000;28;20701;-67
2023/12/02 11:00:22;;;;;;;13.03;12.43;;;0.20;99.90;;;;;;5074178;28;20203;-67
2023/12/02 11:02:52;;;;;;;13.30;12.70;;;0.20;99.90;;;;;;5077727;28;20211;-67
2023/12/02 11:05:21;;;;;;;13.70;13.10;;;0.10;99.90;;;;;;5074149;28;20227;-67
2023/12/02 11:07:52;;;;;;;13.13;12.53;;;0.20;99.90;;;;;;5077095;28;20207;-67
2023/12/02 11:10:29;;;;;;;12.43;11.83;;;0.20;99.90;;;;;;5069719;28;20207;-67
2023/12/02 11:13:00;;;;;;;13.17;12.57;;;0.20;99.90;;;;;;5075008;28;20222;-67
2023/12/02 11:15:29;;;;;;;13.77;13.17;;;0.20;99.90;;;;;;5074504;28;20299;-67
2023/12/02 11:18:03;;;;;;;14.43;13.73;;;0.30;99.90;;;;;;5082671;28;20219;-68
2023/12/02 11:20:38;;;;;;;12.93;12.43;;;0.20;99.90;;;;;;5087835;28;20210;-67
2023/12/02 11:23:47;;;;;;;13.40;12.70;;;0.20;99.90;;;;;;5086756;28;20207;-68
2023/12/02 11:26:23;;;;;;;12.60;12.10;;;0.20;99.90;;;;;;5067673;28;20237;-66
2023/12/02 11:29:03;;;;;;;13.17;12.57;;;0.30;99.90;;;;;;5074242;28;20230;-66
2023/12/02 11:31:46;;;;;;;12.60;12.10;;;0.30;99.90;;;;;;5073987;28;20211;-68
2023/12/02 11:34:37;;;;;;;12.63;12.03;;;0.30;99.90;;;;;;5067041;28;20208;-68
2023/12/02 11:37:16;;;;;;;12.80;12.30;;;0.30;99.90;;;;;;5074121;28;20839;-67
2023/12/02 11:39:53;;;;;;;12.70;12.20;;;0.30;99.90;;;;;;5073840;28;20214;-67
2023/12/02 11:42:21;;;;;;;13.07;12.50;;;0.40;99.90;;;;;;5073713;28;20662;-66
2023/12/02 11:45:06;;;;;;;13.30;12.70;;;0.40;99.90;;;;;;5073953;28;20231;-66
2023/12/02 11:47:44;;;;;;;12.30;11.80;;;0.40;99.90;;;;;;5074769;28;20636;-67
2023/12/02 11:50:30;;;;;;;12.70;12.20;;;0.50;99.90;;;;;;5073374;28;20249;-68
2023/12/02 11:53:10;;;;;;;14.10;13.30;;;0.50;99.90;;;;;;5074761;28;20215;-66
2023/12/02 11:55:44;;;;;;;13.40;12.80;;;0.50;99.90;;;;;;5068560;28;20325;-66
2023/12/02 11:58:19;;;;;;;13.70;13.10;;;0.50;99.90;;;;;;5072673;28;20219;-66
2023/12/02 12:01:09;;;;;;;13.83;13.20;;;0.50;99.90;;;;;;5072679;28;20215;-67
2023/12/02 12:04:02;;;;;;;13.30;12.70;;;0.40;99.90;;;;;;5072748;28;20257;-66
2023/12/02 12:06:53;;;;;;;13.90;13.30;;;0.50;99.90;;;;;;5071431;28;20743;-67
2023/12/02 12:09:31;;;;;;;13.10;12.60;;;0.60;99.90;;;;;;5071967;28;20592;-67
2023/12/02 12:11:59;;;;;;;13.17;12.57;;;0.60;99.90;;;;;;5063870;28;20234;-67
2023/12/02 12:14:28;;;;;;;12.73;12.23;;;0.70;99.90;;;;;;5051891;28;20555;-66
2023/12/02 12:16:55;;;;;;;13.43;12.83;;;0.70;99.90;;;;;;5051664;28;20212;-67
2023/12/02 12:19:22;;;;;;;12.63;12.13;;;0.60;99.90;;;;;;5059329;28;20192;-68
2023/12/02 12:21:50;;;;;;;13.53;12.93;;;0.50;99.90;;;;;;5068268;28;20235;-68
2023/12/02 12:24:16;;;;;;;13.30;12.70;;;0.60;99.90;;;;;;5072661;28;20211;-66
2023/12/02 12:26:44;;;;;;;12.63;12.13;;;0.70;99.90;;;;;;5072678;28;20231;-68
2023/12/02 12:29:11;;;;;;;14.03;13.40;;;0.70;99.90;;;;;;5068648;28;20219;-66
2023/12/02 12:31:38;;;;;;;13.37;12.77;;;0.60;99.90;;;;;;5072552;28;20211;-67
2023/12/02 12:34:11;;;;;;;12.47;11.97;;;0.60;99.90;;;;;;5067295;28;20279;-67
2023/12/02 12:36:40;;;;;;;12.30;11.80;;;0.50;99.90;;;;;;5072306;28;20231;-66
2023/12/02 12:39:09;;;;;;;13.20;12.60;;;0.60;99.90;;;;;;5072579;28;20211;-67
2023/12/02 12:41:38;;;;;;;13.30;12.70;;;0.60;99.90;;;;;;5072140;28;20210;-66
2023/12/02 12:44:05;;;;;;;12.57;12.07;;;0.50;99.90;;;;;;5071587;28;20222;-67
2023/12/02 12:46:32;;;;;;;13.03;12.43;;;0.50;99.90;;;;;;5072087;28;20242;-67